sensor_id;sensor_type;location;lat;lon;timestamp;pressure;altitude;pressure_sealevel;temperature;humidity
8398;BME280;4236;54.504;9.588;2022-10-23T00:01:43;101422.53;;;11.57;100.00
8398;BME280;4236;54.504;9.588;2022-10-23T00:04:13;101435.91;;;11.57;100.00
8398;BME280;4236;54.504;9.588;2022-10-23T00:06:42;101436.72;;;11.58;100.00
8398;BME280;4236;54.504;9.588;2022-10-23T00:09:12;101447.22;;;11.59;100.00
8398;BME280;4236;54.504;9.588;2022-10-23T00:11:41;101453.59;;;11.58;100.00
8398;BME280;4236;54.504;9.588;2022-10-23T00:14:11;101439.56;;;11.56;100.00
8398;BME280;4236;54.504;9.588;2022-10-23T00:16:38;101442.25;;;11.56;100.00
8398;BME280;4236;54.504;9.588;2022-10-23T00:19:06;101444.91;;;11.56;100.00
8398;BME280;4236;54.504;9.588;2022-10-23T00:21:34;101448.63;;;11.55;100.00
8398;BME280;4236;54.504;9.588;2022-10-23T00:24:02;101449.63;;;11.54;100.00
8398;BME280;4236;54.504;9.588;2022-10-23T00:26:30;101456.63;;;11.55;100.00
8398;BME280;4236;54.504;9.588;2022-10-23T00:28:57;101457.00;;;11.52;100.00
8398;BME280;4236;54.504;9.588;2022-10-23T00:31:26;101452.47;;;11.53;100.00
8398;BME280;4236;54.504;9.588;2022-10-23T00:33:54;101456.16;;;11.52;100.00
8398;BME280;4236;54.504;9.588;2022-10-23T00:36:21;101458.16;;;11.50;100.00
8398;BME280;4236;54.504;9.588;2022-10-23T00:38:49;101459.38;;;11.47;100.00
8398;BME280;4236;54.504;9.588;2022-10-23T00:41:19;101463.09;;;11.46;100.00
8398;BME280;4236;54.504;9.588;2022-10-23T00:43:58;101462.88;;;11.48;100.00
8398;BME280;4236;54.504;9.588;2022-10-23T00:46:28;101452.41;;;11.46;100.00
8398;BME280;4236;54.504;9.588;2022-10-23T00:48:57;101455.25;;;11.45;100.00
8398;BME280;4236;54.504;9.588;2022-10-23T00:51:27;101464.91;;;11.46;100.00
8398;BME280;4236;54.504;9.588;2022-10-23T00:53:57;101457.53;;;11.48;100.00
8398;BME280;4236;54.504;9.588;2022-10-23T00:56:46;101458.38;;;11.48;100.00
8398;BME280;4236;54.504;9.588;2022-10-23T00:59:14;101461.03;;;11.48;100.00
8398;BME280;4236;54.504;9.588;2022-10-23T01:01:43;101458.38;;;11.48;100.00
8398;BME280;4236;54.504;9.588;2022-10-23T01:04:11;101460.22;;;11.48;100.00
8398;BME280;4236;54.504;9.588;2022-10-23T01:06:41;101462.03;;;11.47;100.00
8398;BME280;4236;54.504;9.588;2022-10-23T01:09:14;101456.91;;;11.46;100.00
8398;BME280;4236;54.504;9.588;2022-10-23T01:11:47;101449.06;;;11.44;100.00
8398;BME280;4236;54.504;9.588;2022-10-23T01:14:22;101449.25;;;11.43;100.00
8398;BME280;4236;54.504;9.588;2022-10-23T01:16:59;101456.63;;;11.41;100.00
8398;BME280;4236;54.504;9.588;2022-10-23T01:19:41;101457.81;;;11.38;100.00
8398;BME280;4236;54.504;9.588;2022-10-23T01:22:21;101455.50;;;11.35;100.00
8398;BME280;4236;54.504;9.588;2022-10-23T01:24:56;101470.06;;;11.33;100.00
8398;BME280;4236;54.504;9.588;2022-10-23T01:27:30;101464.09;;;11.31;100.00
8398;BME280;4236;54.504;9.588;2022-10-23T01:30:04;101457.06;;;11.30;100.00
8398;BME280;4236;54.504;9.588;2022-10-23T01:32:38;101451.94;;;11.28;100.00
8398;BME280;4236;54.504;9.588;2022-10-23T01:35:12;101455.59;;;11.27;100.00
8398;BME280;4236;54.504;9.588;2022-10-23T01:37:41;101461.16;;;11.26;100.00
8398;BME280;4236;54.504;9.588;2022-10-23T01:40:15;101469.31;;;11.24;100.00
8398;BME280;4236;54.504;9.588;2022-10-23T01:42:50;101464.97;;;11.23;100.00
8398;BME280;4236;54.504;9.588;2022-10-23T01:45:24;101461.69;;;11.21;100.00
8398;BME280;4236;54.504;9.588;2022-10-23T01:47:54;101463.72;;;11.19;100.00
8398;BME280;4236;54.504;9.588;2022-10-23T01:50:23;101466.75;;;11.16;100.00
8398;BME280;4236;54.504;9.588;2022-10-23T01:52:53;101465.09;;;11.15;100.00
8398;BME280;4236;54.504;9.588;2022-10-23T01:55:21;101455.59;;;11.13;100.00
8398;BME280;4236;54.504;9.588;2022-10-23T01:57:52;101462.13;;;11.10;100.00
8398;BME280;4236;54.504;9.588;2022-10-23T02:00:21;101458.00;;;11.07;100.00
8398;BME280;4236;54.504;9.588;2022-10-23T02:02:50;101452.19;;;11.04;100.00
8398;BME280;4236;54.504;9.588;2022-10-23T02:05:21;101452.72;;;10.99;100.00
8398;BME280;4236;54.504;9.588;2022-10-23T02:07:50;101446.09;;;10.95;100.00
8398;BME280;4236;54.504;9.588;2022-10-23T02:10:19;101446.63;;;10.91;100.00
8398;BME280;4236;54.504;9.588;2022-10-23T02:12:53;101462.38;;;10.86;100.00
8398;BME280;4236;54.504;9.588;2022-10-23T02:15:28;101456.75;;;10.81;100.00
8398;BME280;4236;54.504;9.588;2022-10-23T02:18:02;101453.78;;;10.76;100.00
8398;BME280;4236;54.504;9.588;2022-10-23T02:20:36;101458.19;;;10.69;100.00
8398;BME280;4236;54.504;9.588;2022-10-23T02:23:13;101449.09;;;10.63;100.00
8398;BME280;4236;54.504;9.588;2022-10-23T02:25:47;101447.13;;;10.57;100.00
8398;BME280;4236;54.504;9.588;2022-10-23T02:28:23;101458.31;;;10.52;100.00
8398;BME280;4236;54.504;9.588;2022-10-23T02:30:54;101450.03;;;10.47;100.00
8398;BME280;4236;54.504;9.588;2022-10-23T02:33:25;101442.56;;;10.43;100.00
8398;BME280;4236;54.504;9.588;2022-10-23T02:35:53;101455.59;;;10.38;100.00
8398;BME280;4236;54.504;9.588;2022-10-23T02:38:33;101451.97;;;10.31;100.00
8398;BME280;4236;54.504;9.588;2022-10-23T02:41:14;101451.88;;;10.24;100.00
8398;BME280;4236;54.504;9.588;2022-10-23T02:43:51;101453.56;;;10.17;100.00
8398;BME280;4236;54.504;9.588;2022-10-23T02:46:24;101448.91;;;10.11;100.00
8398;BME280;4236;54.504;9.588;2022-10-23T02:49:00;101445.13;;;10.06;100.00
8398;BME280;4236;54.504;9.588;2022-10-23T02:51:43;101452.78;;;10.00;100.00
8398;BME280;4236;54.504;9.588;2022-10-23T02:54:19;101446.19;;;9.96;100.00
8398;BME280;4236;54.504;9.588;2022-10-23T02:56:54;101444.69;;;9.94;100.00
8398;BME280;4236;54.504;9.588;2022-10-23T02:59:32;101446.53;;;9.93;100.00
8398;BME280;4236;54.504;9.588;2022-10-23T03:02:02;101447.72;;;9.91;100.00
8398;BME280;4236;54.504;9.588;2022-10-23T03:04:34;101448.72;;;9.90;100.00
8398;BME280;4236;54.504;9.588;2022-10-23T03:07:04;101443.38;;;9.90;100.00
8398;BME280;4236;54.504;9.588;2022-10-23T03:09:31;101454.22;;;9.88;100.00
8398;BME280;4236;54.504;9.588;2022-10-23T03:11:59;101452.72;;;9.86;100.00
8398;BME280;4236;54.504;9.588;2022-10-23T03:14:28;101451.09;;;9.85;100.00
8398;BME280;4236;54.504;9.588;2022-10-23T03:16:55;101447.75;;;9.83;100.00
8398;BME280;4236;54.504;9.588;2022-10-23T03:19:23;101446.75;;;9.84;100.00
8398;BME280;4236;54.504;9.588;2022-10-23T03:21:50;101460.06;;;9.84;100.00
8398;BME280;4236;54.504;9.588;2022-10-23T03:24:18;101456.41;;;9.85;100.00
8398;BME280;4236;54.504;9.588;2022-10-23T03:26:46;101450.88;;;9.86;100.00
8398;BME280;4236;54.504;9.588;2022-10-23T03:29:13;101453.41;;;9.88;100.00
8398;BME280;4236;54.504;9.588;2022-10-23T03:31:42;101458.38;;;9.91;100.00
8398;BME280;4236;54.504;9.588;2022-10-23T03:34:10;101453.88;;;9.91;100.00
8398;BME280;4236;54.504;9.588;2022-10-23T03:36:39;101461.03;;;9.91;100.00
8398;BME280;4236;54.504;9.588;2022-10-23T03:39:06;101461.38;;;9.88;100.00
8398;BME280;4236;54.504;9.588;2022-10-23T03:41:34;101459.91;;;9.85;100.00
8398;BME280;4236;54.504;9.588;2022-10-23T03:44:02;101459.41;;;9.82;100.00
8398;BME280;4236;54.504;9.588;2022-10-23T03:46:35;101450.09;;;9.78;100.00
8398;BME280;4236;54.504;9.588;2022-10-23T03:49:04;101448.13;;;9.72;100.00
8398;BME280;4236;54.504;9.588;2022-10-23T03:51:32;101451.50;;;9.66;100.00
8398;BME280;4236;54.504;9.588;2022-10-23T03:53:59;101453.03;;;9.60;100.00
8398;BME280;4236;54.504;9.588;2022-10-23T03:56:27;101450.06;;;9.55;100.00
8398;BME280;4236;54.504;9.588;2022-10-23T03:58:54;101447.06;;;9.50;100.00
8398;BME280;4236;54.504;9.588;2022-10-23T04:01:22;101445.91;;;9.44;100.00
8398;BME280;4236;54.504;9.588;2022-10-23T04:03:50;101442.94;;;9.39;100.00
8398;BME280;4236;54.504;9.588;2022-10-23T04:06:19;101446.78;;;9.37;100.00
8398;BME280;4236;54.504;9.588;2022-10-23T04:08:47;101455.94;;;9.34;100.00
8398;BME280;4236;54.504;9.588;2022-10-23T04:11:15;101457.09;;;9.32;100.00
8398;BME280;4236;54.504;9.588;2022-10-23T04:13:42;101453.78;;;9.30;100.00
8398;BME280;4236;54.504;9.588;2022-10-23T04:16:10;101448.81;;;9.27;100.00
8398;BME280;4236;54.504;9.588;2022-10-23T04:18:39;101455.94;;;9.26;100.00
8398;BME280;4236;54.504;9.588;2022-10-23T04:21:06;101450.13;;;9.23;100.00
8398;BME280;4236;54.504;9.588;2022-10-23T04:23:35;101450.50;;;9.20;100.00
8398;BME280;4236;54.504;9.588;2022-10-23T04:26:03;101456.97;;;9.17;100.00
8398;BME280;4236;54.504;9.588;2022-10-23T04:28:31;101453.00;;;9.13;100.00
8398;BME280;4236;54.504;9.588;2022-10-23T04:30:58;101457.00;;;9.09;100.00
8398;BME280;4236;54.504;9.588;2022-10-23T04:33:26;101459.84;;;9.08;100.00
8398;BME280;4236;54.504;9.588;2022-10-23T04:35:54;101453.00;;;9.05;100.00
8398;BME280;4236;54.504;9.588;2022-10-23T04:38:21;101453.19;;;9.04;100.00
8398;BME280;4236;54.504;9.588;2022-10-23T04:40:50;101456.84;;;9.03;100.00
8398;BME280;4236;54.504;9.588;2022-10-23T04:43:18;101464.16;;;9.01;100.00
8398;BME280;4236;54.504;9.588;2022-10-23T04:45:47;101455.34;;;9.00;100.00
8398;BME280;4236;54.504;9.588;2022-10-23T04:48:15;101452.88;;;8.99;100.00
8398;BME280;4236;54.504;9.588;2022-10-23T04:50:42;101449.53;;;8.97;100.00
8398;BME280;4236;54.504;9.588;2022-10-23T04:53:11;101446.03;;;8.96;100.00
8398;BME280;4236;54.504;9.588;2022-10-23T04:55:38;101446.38;;;8.93;100.00
8398;BME280;4236;54.504;9.588;2022-10-23T04:58:07;101446.56;;;8.92;100.00
8398;BME280;4236;54.504;9.588;2022-10-23T05:00:35;101453.88;;;8.89;100.00
8398;BME280;4236;54.504;9.588;2022-10-23T05:03:03;101434.78;;;8.86;100.00
8398;BME280;4236;54.504;9.588;2022-10-23T05:05:30;101448.22;;;8.84;100.00
8398;BME280;4236;54.504;9.588;2022-10-23T05:07:58;101447.75;;;8.81;100.00
8398;BME280;4236;54.504;9.588;2022-10-23T05:10:25;101447.25;;;8.77;100.00
8398;BME280;4236;54.504;9.588;2022-10-23T05:12:53;101449.41;;;8.74;100.00
8398;BME280;4236;54.504;9.588;2022-10-23T05:15:22;101451.56;;;8.70;100.00
8398;BME280;4236;54.504;9.588;2022-10-23T05:17:51;101444.75;;;8.68;100.00
8398;BME280;4236;54.504;9.588;2022-10-23T05:20:24;101444.44;;;8.63;100.00
8398;BME280;4236;54.504;9.588;2022-10-23T05:22:54;101443.59;;;8.62;100.00
8398;BME280;4236;54.504;9.588;2022-10-23T05:25:23;101444.78;;;8.60;100.00
8398;BME280;4236;54.504;9.588;2022-10-23T05:27:51;101445.91;;;8.57;100.00
8398;BME280;4236;54.504;9.588;2022-10-23T05:30:18;101445.44;;;8.54;100.00
8398;BME280;4236;54.504;9.588;2022-10-23T05:32:47;101440.91;;;8.54;100.00
8398;BME280;4236;54.504;9.588;2022-10-23T05:35:18;101440.13;;;8.54;100.00
8398;BME280;4236;54.504;9.588;2022-10-23T05:37:48;101436.78;;;8.52;100.00
8398;BME280;4236;54.504;9.588;2022-10-23T05:40:17;101434.44;;;8.49;100.00
8398;BME280;4236;54.504;9.588;2022-10-23T05:42:45;101432.31;;;8.44;100.00
8398;BME280;4236;54.504;9.588;2022-10-23T05:45:13;101424.00;;;8.39;100.00
8398;BME280;4236;54.504;9.588;2022-10-23T05:47:43;101415.69;;;8.34;100.00
8398;BME280;4236;54.504;9.588;2022-10-23T05:50:12;101418.66;;;8.31;100.00
8398;BME280;4236;54.504;9.588;2022-10-23T05:52:39;101416.34;;;8.28;100.00
8398;BME280;4236;54.504;9.588;2022-10-23T05:55:08;101415.66;;;8.26;100.00
8398;BME280;4236;54.504;9.588;2022-10-23T05:57:36;101421.81;;;8.26;100.00
8398;BME280;4236;54.504;9.588;2022-10-23T06:00:04;101422.50;;;8.28;100.00
8398;BME280;4236;54.504;9.588;2022-10-23T06:02:32;101421.81;;;8.34;100.00
8398;BME280;4236;54.504;9.588;2022-10-23T06:05:00;101424.00;;;8.39;100.00
8398;BME280;4236;54.504;9.588;2022-10-23T06:07:29;101428.81;;;8.44;100.00
8398;BME280;4236;54.504;9.588;2022-10-23T06:10:01;101430.28;;;8.46;100.00
8398;BME280;4236;54.504;9.588;2022-10-23T06:12:30;101431.13;;;8.47;100.00
8398;BME280;4236;54.504;9.588;2022-10-23T06:14:58;101426.47;;;8.49;100.00
8398;BME280;4236;54.504;9.588;2022-10-23T06:17:26;101426.81;;;8.54;100.00
8398;BME280;4236;54.504;9.588;2022-10-23T06:19:53;101424.63;;;8.57;100.00
8398;BME280;4236;54.504;9.588;2022-10-23T06:22:26;101425.66;;;8.64;100.00
8398;BME280;4236;54.504;9.588;2022-10-23T06:24:55;101427.28;;;8.73;100.00
8398;BME280;4236;54.504;9.588;2022-10-23T06:27:22;101416.81;;;8.80;100.00
8398;BME280;4236;54.504;9.588;2022-10-23T06:29:50;101424.78;;;8.88;100.00
8398;BME280;4236;54.504;9.588;2022-10-23T06:32:18;101425.59;;;8.97;100.00
8398;BME280;4236;54.504;9.588;2022-10-23T06:34:45;101436.56;;;9.02;100.00
8398;BME280;4236;54.504;9.588;2022-10-23T06:37:13;101428.06;;;9.06;100.00
8398;BME280;4236;54.504;9.588;2022-10-23T06:39:40;101434.38;;;9.13;100.00
8398;BME280;4236;54.504;9.588;2022-10-23T06:42:09;101438.84;;;9.21;100.00
8398;BME280;4236;54.504;9.588;2022-10-23T06:44:38;101441.47;;;9.29;100.00
8398;BME280;4236;54.504;9.588;2022-10-23T06:47:05;101448.63;;;9.36;100.00
8398;BME280;4236;54.504;9.588;2022-10-23T06:49:35;101438.75;;;9.45;100.00
8398;BME280;4236;54.504;9.588;2022-10-23T06:52:02;101441.56;;;9.52;100.00
8398;BME280;4236;54.504;9.588;2022-10-23T06:54:30;101448.69;;;9.59;100.00
8398;BME280;4236;54.504;9.588;2022-10-23T06:56:58;101452.31;;;9.66;100.00
8398;BME280;4236;54.504;9.588;2022-10-23T06:59:27;101440.97;;;9.72;100.00
8398;BME280;4236;54.504;9.588;2022-10-23T07:01:54;101444.78;;;9.78;100.00
8398;BME280;4236;54.504;9.588;2022-10-23T07:04:22;101435.44;;;9.82;100.00
8398;BME280;4236;54.504;9.588;2022-10-23T07:06:50;101441.72;;;9.89;100.00
8398;BME280;4236;54.504;9.588;2022-10-23T07:09:18;101441.38;;;9.92;100.00
8398;BME280;4236;54.504;9.588;2022-10-23T07:11:45;101449.97;;;10.02;100.00
8398;BME280;4236;54.504;9.588;2022-10-23T07:14:13;101450.28;;;10.15;100.00
8398;BME280;4236;54.504;9.588;2022-10-23T07:16:42;101445.16;;;10.28;100.00
8398;BME280;4236;54.504;9.588;2022-10-23T07:19:09;101449.44;;;10.37;100.00
8398;BME280;4236;54.504;9.588;2022-10-23T07:21:37;101451.03;;;10.46;100.00
8398;BME280;4236;54.504;9.588;2022-10-23T07:24:05;101451.75;;;10.63;100.00
8398;BME280;4236;54.504;9.588;2022-10-23T07:26:33;101456.66;;;10.74;100.00
8398;BME280;4236;54.504;9.588;2022-10-23T07:29:00;101453.91;;;10.82;100.00
8398;BME280;4236;54.504;9.588;2022-10-23T07:31:28;101457.66;;;10.88;100.00
8398;BME280;4236;54.504;9.588;2022-10-23T07:33:57;101458.16;;;11.06;100.00
8398;BME280;4236;54.504;9.588;2022-10-23T07:36:25;101457.53;;;11.19;100.00
8398;BME280;4236;54.504;9.588;2022-10-23T07:38:53;101445.66;;;11.36;100.00
8398;BME280;4236;54.504;9.588;2022-10-23T07:41:20;101442.97;;;11.50;100.00
8398;BME280;4236;54.504;9.588;2022-10-23T07:43:48;101446.66;;;11.64;100.00
8398;BME280;4236;54.504;9.588;2022-10-23T07:46:15;101439.88;;;11.76;100.00
8398;BME280;4236;54.504;9.588;2022-10-23T07:48:43;101436.06;;;11.85;100.00
8398;BME280;4236;54.504;9.588;2022-10-23T07:51:14;101442.88;;;11.88;100.00
8398;BME280;4236;54.504;9.588;2022-10-23T07:53:42;101448.47;;;11.93;100.00
8398;BME280;4236;54.504;9.588;2022-10-23T07:56:13;101447.09;;;11.97;100.00
8398;BME280;4236;54.504;9.588;2022-10-23T07:58:41;101446.34;;;12.03;100.00
8398;BME280;4236;54.504;9.588;2022-10-23T08:01:16;101454.88;;;12.13;100.00
8398;BME280;4236;54.504;9.588;2022-10-23T08:03:45;101463.34;;;12.16;100.00
8398;BME280;4236;54.504;9.588;2022-10-23T08:06:14;101454.78;;;12.21;100.00
8398;BME280;4236;54.504;9.588;2022-10-23T08:08:42;101459.34;;;12.27;100.00
8398;BME280;4236;54.504;9.588;2022-10-23T08:11:12;101450.69;;;12.25;100.00
8398;BME280;4236;54.504;9.588;2022-10-23T08:13:41;101445.59;;;12.30;100.00
8398;BME280;4236;54.504;9.588;2022-10-23T08:16:09;101448.59;;;12.20;100.00
8398;BME280;4236;54.504;9.588;2022-10-23T08:18:37;101447.50;;;12.15;100.00
8398;BME280;4236;54.504;9.588;2022-10-23T08:21:06;101447.63;;;12.28;100.00
8398;BME280;4236;54.504;9.588;2022-10-23T08:23:35;101455.97;;;12.40;100.00
8398;BME280;4236;54.504;9.588;2022-10-23T08:26:04;101461.75;;;12.43;100.00
8398;BME280;4236;54.504;9.588;2022-10-23T08:28:32;101459.22;;;12.35;100.00
8398;BME280;4236;54.504;9.588;2022-10-23T08:31:06;101453.88;;;12.35;100.00
8398;BME280;4236;54.504;9.588;2022-10-23T08:33:34;101458.22;;;12.36;100.00
8398;BME280;4236;54.504;9.588;2022-10-23T08:36:02;101444.50;;;12.46;100.00
8398;BME280;4236;54.504;9.588;2022-10-23T08:38:30;101443.88;;;12.44;100.00
8398;BME280;4236;54.504;9.588;2022-10-23T08:41:00;101438.97;;;12.47;100.00
8398;BME280;4236;54.504;9.588;2022-10-23T08:43:32;101435.97;;;12.57;100.00
8398;BME280;4236;54.504;9.588;2022-10-23T08:46:05;101443.03;;;12.64;100.00
8398;BME280;4236;54.504;9.588;2022-10-23T08:48:38;101442.84;;;12.66;100.00
8398;BME280;4236;54.504;9.588;2022-10-23T08:51:13;101434.81;;;12.66;100.00
8398;BME280;4236;54.504;9.588;2022-10-23T08:53:49;101441.31;;;12.78;100.00
8398;BME280;4236;54.504;9.588;2022-10-23T08:56:23;101445.53;;;12.94;100.00
8398;BME280;4236;54.504;9.588;2022-10-23T08:58:55;101445.88;;;13.12;100.00
8398;BME280;4236;54.504;9.588;2022-10-23T09:01:35;101447.47;;;13.34;100.00
8398;BME280;4236;54.504;9.588;2022-10-23T09:04:04;101447.47;;;13.34;100.00
8398;BME280;4236;54.504;9.588;2022-10-23T09:06:35;101455.63;;;13.54;100.00
8398;BME280;4236;54.504;9.588;2022-10-23T09:09:23;101446.19;;;13.64;100.00
8398;BME280;4236;54.504;9.588;2022-10-23T09:12:04;101438.84;;;13.86;100.00
8398;BME280;4236;54.504;9.588;2022-10-23T09:14:47;101437.69;;;14.08;100.00
8398;BME280;4236;54.504;9.588;2022-10-23T09:17:22;101436.91;;;14.27;100.00
8398;BME280;4236;54.504;9.588;2022-10-23T09:20:04;101433.66;;;14.45;100.00
8398;BME280;4236;54.504;9.588;2022-10-23T09:22:34;101444.63;;;14.57;100.00
8398;BME280;4236;54.504;9.588;2022-10-23T09:25:02;101439.03;;;14.45;100.00
8398;BME280;4236;54.504;9.588;2022-10-23T09:27:31;101424.53;;;14.26;100.00
8398;BME280;4236;54.504;9.588;2022-10-23T09:29:58;101417.91;;;14.09;100.00
8398;BME280;4236;54.504;9.588;2022-10-23T09:32:34;101432.03;;;13.83;100.00
8398;BME280;4236;54.504;9.588;2022-10-23T09:35:03;101425.63;;;13.78;100.00
8398;BME280;4236;54.504;9.588;2022-10-23T09:37:32;101435.09;;;13.74;100.00
8398;BME280;4236;54.504;9.588;2022-10-23T09:40:11;101426.19;;;13.60;100.00
8398;BME280;4236;54.504;9.588;2022-10-23T09:42:52;101434.25;;;13.67;100.00
8398;BME280;4236;54.504;9.588;2022-10-23T09:45:22;101430.31;;;13.63;100.00
8398;BME280;4236;54.504;9.588;2022-10-23T09:47:50;101428.03;;;13.60;100.00
8398;BME280;4236;54.504;9.588;2022-10-23T09:50:19;101425.91;;;13.49;100.00
8398;BME280;4236;54.504;9.588;2022-10-23T09:52:51;101426.53;;;13.51;100.00
8398;BME280;4236;54.504;9.588;2022-10-23T09:55:23;101416.56;;;13.38;100.00
8398;BME280;4236;54.504;9.588;2022-10-23T09:57:53;101414.72;;;13.39;100.00
8398;BME280;4236;54.504;9.588;2022-10-23T10:00:22;101413.00;;;13.24;100.00
8398;BME280;4236;54.504;9.588;2022-10-23T10:02:56;101418.25;;;13.39;100.00
8398;BME280;4236;54.504;9.588;2022-10-23T10:05:26;101423.94;;;13.23;100.00
8398;BME280;4236;54.504;9.588;2022-10-23T10:08:06;101425.91;;;13.14;100.00
8398;BME280;4236;54.504;9.588;2022-10-23T10:10:44;101424.28;;;13.13;100.00
8398;BME280;4236;54.504;9.588;2022-10-23T10:13:29;101418.16;;;13.19;100.00
8398;BME280;4236;54.504;9.588;2022-10-23T10:16:02;101415.97;;;13.36;100.00
8398;BME280;4236;54.504;9.588;2022-10-23T10:18:39;101422.63;;;13.47;100.00
8398;BME280;4236;54.504;9.588;2022-10-23T10:21:13;101418.34;;;13.65;100.00
8398;BME280;4236;54.504;9.588;2022-10-23T10:23:48;101413.06;;;13.78;100.00
8398;BME280;4236;54.504;9.588;2022-10-23T10:26:31;101417.88;;;14.03;100.00
8398;BME280;4236;54.504;9.588;2022-10-23T10:29:17;101421.38;;;14.10;100.00
8398;BME280;4236;54.504;9.588;2022-10-23T10:31:58;101416.03;;;14.16;100.00
8398;BME280;4236;54.504;9.588;2022-10-23T10:34:34;101402.66;;;14.29;100.00
8398;BME280;4236;54.504;9.588;2022-10-23T10:37:14;101402.91;;;14.41;100.00
8398;BME280;4236;54.504;9.588;2022-10-23T10:39:49;101397.53;;;14.54;100.00
8398;BME280;4236;54.504;9.588;2022-10-23T10:42:35;101383.69;;;14.70;100.00
8398;BME280;4236;54.504;9.588;2022-10-23T10:45:25;101383.47;;;14.78;100.00
8398;BME280;4236;54.504;9.588;2022-10-23T10:48:18;101380.56;;;14.93;100.00
8398;BME280;4236;54.504;9.588;2022-10-23T10:50:51;101377.66;;;15.08;100.00
8398;BME280;4236;54.504;9.588;2022-10-23T10:53:26;101372.47;;;15.13;100.00
8398;BME280;4236;54.504;9.588;2022-10-23T10:55:57;101380.25;;;15.27;100.00
8398;BME280;4236;54.504;9.588;2022-10-23T10:58:34;101373.84;;;15.35;100.00
8398;BME280;4236;54.504;9.588;2022-10-23T11:01:13;101372.16;;;15.40;100.00
8398;BME280;4236;54.504;9.588;2022-10-23T11:03:47;101365.81;;;15.28;100.00
8398;BME280;4236;54.504;9.588;2022-10-23T11:06:21;101356.75;;;15.16;100.00
8398;BME280;4236;54.504;9.588;2022-10-23T11:08:49;101354.22;;;15.28;100.00
8398;BME280;4236;54.504;9.588;2022-10-23T11:11:37;101350.47;;;15.35;100.00
8398;BME280;4236;54.504;9.588;2022-10-23T11:14:13;101347.34;;;15.38;100.00
8398;BME280;4236;54.504;9.588;2022-10-23T11:16:45;101344.00;;;15.56;100.00
8398;BME280;4236;54.504;9.588;2022-10-23T11:19:20;101345.78;;;15.69;100.00
8398;BME280;4236;54.504;9.588;2022-10-23T11:21:55;101335.81;;;15.82;100.00
8398;BME280;4236;54.504;9.588;2022-10-23T11:24:43;101333.94;;;15.83;100.00
8398;BME280;4236;54.504;9.588;2022-10-23T11:27:36;101324.84;;;16.09;100.00
8398;BME280;4236;54.504;9.588;2022-10-23T11:30:16;101317.81;;;16.08;100.00
8398;BME280;4236;54.504;9.588;2022-10-23T11:36:03;101305.56;;;16.12;100.00
8398;BME280;4236;54.504;9.588;2022-10-23T11:38:32;101302.84;;;16.18;100.00
8398;BME280;4236;54.504;9.588;2022-10-23T11:41:04;101299.00;;;16.32;100.00
8398;BME280;4236;54.504;9.588;2022-10-23T11:43:34;101303.09;;;16.35;100.00
8398;BME280;4236;54.504;9.588;2022-10-23T11:46:30;101298.38;;;16.55;100.00
8398;BME280;4236;54.504;9.588;2022-10-23T11:49:00;101286.50;;;16.63;100.00
8398;BME280;4236;54.504;9.588;2022-10-23T11:51:31;101280.44;;;16.85;100.00
8398;BME280;4236;54.504;9.588;2022-10-23T11:54:18;101283.84;;;16.99;100.00
8398;BME280;4236;54.504;9.588;2022-10-23T11:56:52;101276.47;;;17.06;100.00
8398;BME280;4236;54.504;9.588;2022-10-23T11:59:24;101267.75;;;16.92;100.00
8398;BME280;4236;54.504;9.588;2022-10-23T12:01:53;101256.00;;;17.05;100.00
8398;BME280;4236;54.504;9.588;2022-10-23T12:04:26;101257.66;;;17.17;100.00
8398;BME280;4236;54.504;9.588;2022-10-23T12:06:55;101251.41;;;17.35;100.00
8398;BME280;4236;54.504;9.588;2022-10-23T12:09:31;101255.75;;;17.36;100.00
8398;BME280;4236;54.504;9.588;2022-10-23T12:12:14;101248.78;;;17.47;100.00
8398;BME280;4236;54.504;9.588;2022-10-23T12:14:44;101252.84;;;17.56;100.00
8398;BME280;4236;54.504;9.588;2022-10-23T12:17:28;101246.66;;;17.49;100.00
8398;BME280;4236;54.504;9.588;2022-10-23T12:20:16;101248.88;;;17.40;100.00
8398;BME280;4236;54.504;9.588;2022-10-23T12:22:52;101239.38;;;17.38;100.00
8398;BME280;4236;54.504;9.588;2022-10-23T12:25:30;101235.81;;;17.26;100.00
8398;BME280;4236;54.504;9.588;2022-10-23T12:28:06;101231.00;;;17.28;100.00
8398;BME280;4236;54.504;9.588;2022-10-23T12:30:42;101224.56;;;17.29;100.00
8398;BME280;4236;54.504;9.588;2022-10-23T12:33:19;101219.63;;;17.26;100.00
8398;BME280;4236;54.504;9.588;2022-10-23T12:36:03;101221.00;;;17.17;100.00
8398;BME280;4236;54.504;9.588;2022-10-23T12:38:42;101214.19;;;17.14;100.00
8398;BME280;4236;54.504;9.588;2022-10-23T12:41:13;101200.34;;;17.10;100.00
8398;BME280;4236;54.504;9.588;2022-10-23T12:43:42;101197.38;;;17.00;100.00
8398;BME280;4236;54.504;9.588;2022-10-23T12:46:32;101196.34;;;17.01;100.00
8398;BME280;4236;54.504;9.588;2022-10-23T12:49:02;101183.44;;;17.03;100.00
8398;BME280;4236;54.504;9.588;2022-10-23T12:51:33;101188.38;;;17.06;100.00
8398;BME280;4236;54.504;9.588;2022-10-23T12:54:02;101176.72;;;16.94;100.00
8398;BME280;4236;54.504;9.588;2022-10-23T12:56:34;101178.84;;;16.92;100.00
8398;BME280;4236;54.504;9.588;2022-10-23T12:59:12;101176.06;;;16.99;100.00
8398;BME280;4236;54.504;9.588;2022-10-23T13:01:41;101166.81;;;17.06;100.00
8398;BME280;4236;54.504;9.588;2022-10-23T13:04:17;101165.28;;;16.99;100.00
8398;BME280;4236;54.504;9.588;2022-10-23T13:06:49;101157.66;;;16.96;100.00
8398;BME280;4236;54.504;9.588;2022-10-23T13:09:22;101157.88;;;16.94;100.00
8398;BME280;4236;54.504;9.588;2022-10-23T13:11:50;101154.25;;;17.00;100.00
8398;BME280;4236;54.504;9.588;2022-10-23T13:14:30;101154.84;;;17.02;100.00
8398;BME280;4236;54.504;9.588;2022-10-23T13:16:59;101146.88;;;16.96;100.00
8398;BME280;4236;54.504;9.588;2022-10-23T13:19:27;101140.28;;;16.92;100.00
8398;BME280;4236;54.504;9.588;2022-10-23T13:21:56;101140.53;;;16.90;100.00
8398;BME280;4236;54.504;9.588;2022-10-23T13:24:26;101127.25;;;16.77;100.00
8398;BME280;4236;54.504;9.588;2022-10-23T13:26:55;101124.63;;;16.71;100.00
8398;BME280;4236;54.504;9.588;2022-10-23T13:29:25;101117.75;;;16.75;100.00